Time;durP1;ratioP1;P1;durP2;ratioP2;P2;SDS_P1;SDS_P2;PMS_P1;PMS_P2;Temp;Humidity;BMP_temperature;BMP_pressure;BME280_temperature;BME280_humidity;BME280_pressure;Samples;Min_cycle;Max_cycle;Signal;HPM_P1;HPM_P2
2023/03/05 00:01:33;;;;;;;;;;;;;;;3.47;100.00;98071.88;5070201;28;19931;-77
2023/03/05 00:04:00;;;;;;;;;;;;;;;3.48;100.00;98070.06;5062322;28;20009;-80
2023/03/05 00:06:27;;;;;;;;;;;;;;;3.36;100.00;98069.94;5051227;28;19990;-78
2023/03/05 00:08:55;;;;;;;;;;;;;;;3.35;100.00;98060.38;5061048;28;19924;-78
2023/03/05 00:11:24;;;;;;;;;;;;;;;3.20;100.00;98067.78;5063625;28;19928;-75
2023/03/05 00:13:51;;;;;;;;;;;;;;;3.34;100.00;98065.91;5072017;28;19924;-77
2023/03/05 00:16:18;;;;;;;;;;;;;;;3.45;100.00;98063.38;5070102;28;20035;-83
2023/03/05 00:18:45;;;;;;;;;;;;;;;3.43;100.00;98065.44;5078149;28;19942;-83
2023/03/05 00:21:19;;;;;;;;;;;;;;;3.40;100.00;98054.47;5079651;28;19934;-78
2023/03/05 00:23:45;;;;;;;;;;;;;;;3.34;100.00;98050.88;5078801;28;20452;-82
2023/03/05 00:26:12;;;;;;;;;;;;;;;3.42;100.00;98052.44;5086903;28;19938;-85
2023/03/05 00:28:39;;;;;;;;;;;;;;;3.33;100.00;98053.72;5061752;28;19963;-82
2023/03/05 00:31:06;;;;;;;;;;;;;;;3.42;100.00;98057.72;5072158;28;20601;-82
2023/03/05 00:33:32;;;;;;;;;;;;;;;3.41;100.00;98048.16;5077362;28;19924;-77
2023/03/05 00:36:01;;;;;;;;;;;;;;;3.34;100.00;98050.06;5082447;28;19924;-84
2023/03/05 00:38:27;;;;;;;;;;;;;;;3.20;100.00;98050.13;5075503;28;19931;-79
2023/03/05 00:40:53;;;;;;;;;;;;;;;3.06;100.00;98047.78;5069925;28;20468;-79
2023/03/05 00:43:20;;;;;;;;;;;;;;;3.16;100.00;98045.47;5065772;28;20498;-81
2023/03/05 00:45:48;;;;;;;;;;;;;;;3.26;100.00;98038.72;5070866;28;19932;-78
2023/03/05 00:48:14;;;;;;;;;;;;;;;3.33;100.00;98046.59;5075818;28;20001;-81
2023/03/05 00:50:40;;;;;;;;;;;;;;;3.41;100.00;98041.06;5074159;28;19930;-81
2023/03/05 00:53:07;;;;;;;;;;;;;;;3.37;100.00;98039.06;5071246;28;19971;-80
2023/03/05 00:55:34;;;;;;;;;;;;;;;3.28;100.00;98035.84;5067267;28;20588;-80
2023/03/05 00:58:01;;;;;;;;;;;;;;;3.35;100.00;98047.19;5046168;28;19928;-80
2023/03/05 01:00:27;;;;;;;;;;;;;;;3.41;100.00;98040.25;5067040;28;19953;-79
2023/03/05 01:02:55;;;;;;;;;;;;;;;3.44;100.00;98034.53;5067321;28;19997;-80
2023/03/05 01:05:21;;;;;;;;;;;;;;;3.53;100.00;98033.28;5071299;28;19924;-78
2023/03/05 01:07:48;;;;;;;;;;;;;;;3.46;100.00;98029.88;5050222;28;20007;-81
2023/03/05 01:10:14;;;;;;;;;;;;;;;3.31;100.00;98024.09;5068034;28;19924;-78
2023/03/05 01:12:40;;;;;;;;;;;;;;;3.40;100.00;98020.97;5065602;28;19928;-78
2023/03/05 01:15:07;;;;;;;;;;;;;;;3.45;100.00;98020.31;5066801;28;19935;-82
2023/03/05 01:17:34;;;;;;;;;;;;;;;3.43;100.00;98017.09;5072727;28;19982;-80
2023/03/05 01:20:02;;;;;;;;;;;;;;;3.49;100.00;98010.97;5070500;28;19935;-82
2023/03/05 01:22:28;;;;;;;;;;;;;;;3.53;100.00;98005.00;5073920;28;19931;-76
2023/03/05 01:24:55;;;;;;;;;;;;;;;3.50;100.00;98000.16;5081234;28;19924;-81
2023/03/05 01:27:21;;;;;;;;;;;;;;;3.53;100.00;97996.31;5073564;28;20012;-80
2023/03/05 01:29:47;;;;;;;;;;;;;;;3.50;100.00;97996.72;5074529;28;19928;-75
2023/03/05 01:32:14;;;;;;;;;;;;;;;3.28;100.00;98000.78;5073848;28;19928;-73
2023/03/05 01:34:40;;;;;;;;;;;;;;;3.45;100.00;97999.19;5075636;28;19930;-73
2023/03/05 01:37:09;;;;;;;;;;;;;;;3.47;100.00;97991.88;5078252;28;19924;-74
2023/03/05 01:39:35;;;;;;;;;;;;;;;3.48;100.00;97996.94;5055245;28;19924;-76
2023/03/05 01:42:02;;;;;;;;;;;;;;;3.50;100.00;97986.97;5073055;28;19931;-78
2023/03/05 01:44:29;;;;;;;;;;;;;;;3.40;100.00;97991.13;5072144;28;19940;-75
2023/03/05 01:46:55;;;;;;;;;;;;;;;3.46;100.00;97985.00;5049606;28;19934;-80
2023/03/05 01:49:24;;;;;;;;;;;;;;;3.23;100.00;97985.56;5067221;28;19928;-76
2023/03/05 01:51:55;;;;;;;;;;;;;;;3.30;100.00;97985.50;5054235;28;20034;-77
2023/03/05 01:54:25;;;;;;;;;;;;;;;3.31;100.00;97977.41;5065821;28;20012;-78
2023/03/05 01:56:52;;;;;;;;;;;;;;;3.40;100.00;97975.28;5081620;28;20407;-78
2023/03/05 01:59:20;;;;;;;;;;;;;;;3.21;100.00;97971.78;5070329;28;19936;-80
2023/03/05 02:01:48;;;;;;;;;;;;;;;3.04;100.00;97971.47;5073414;28;19963;-77
2023/03/05 02:04:16;;;;;;;;;;;;;;;3.25;100.00;97978.22;5073404;28;20007;-78
2023/03/05 02:06:43;;;;;;;;;;;;;;;3.36;100.00;97967.00;5079727;28;19934;-78
2023/03/05 02:09:09;;;;;;;;;;;;;;;3.37;100.00;97973.09;5083822;28;19924;-77
2023/03/05 02:11:37;;;;;;;;;;;;;;;3.28;100.00;97962.78;5071972;28;19924;-77
2023/03/05 02:14:04;;;;;;;;;;;;;;;3.37;100.00;97954.59;5083570;28;19931;-76
2023/03/05 02:16:35;;;;;;;;;;;;;;;3.40;100.00;97954.16;5058243;28;20294;-76
2023/03/05 02:19:01;;;;;;;;;;;;;;;3.47;100.00;97960.19;5080834;28;19927;-76
2023/03/05 02:21:35;;;;;;;;;;;;;;;3.38;100.00;97951.72;5076339;28;19928;-74
2023/03/05 02:24:01;;;;;;;;;;;;;;;3.32;100.00;97951.78;5070469;28;20489;-81
2023/03/05 02:26:28;;;;;;;;;;;;;;;3.31;100.00;97944.91;5073259;28;20383;-80
2023/03/05 02:28:57;;;;;;;;;;;;;;;3.41;100.00;97950.50;5075488;28;20700;-80
2023/03/05 02:31:25;;;;;;;;;;;;;;;3.34;100.00;97944.47;5056400;28;19991;-79
2023/03/05 02:33:52;;;;;;;;;;;;;;;3.20;100.00;97943.78;5075577;28;19932;-76
2023/03/05 02:36:19;;;;;;;;;;;;;;;3.40;100.00;97944.44;5073003;28;20826;-77
2023/03/05 02:38:47;;;;;;;;;;;;;;;3.46;100.00;97938.28;5070052;28;19934;-76
2023/03/05 02:41:14;;;;;;;;;;;;;;;3.40;100.00;97938.34;5063970;28;19934;-77
2023/03/05 02:43:41;;;;;;;;;;;;;;;3.25;100.00;97928.09;5052545;28;19924;-75
2023/03/05 02:46:07;;;;;;;;;;;;;;;3.25;100.00;97931.53;5047343;28;20292;-77
2023/03/05 02:48:34;;;;;;;;;;;;;;;3.42;100.00;97929.16;5057657;28;19928;-77
2023/03/05 02:51:01;;;;;;;;;;;;;;;3.30;100.00;97924.81;5078114;28;19934;-78
2023/03/05 02:53:28;;;;;;;;;;;;;;;3.47;100.00;97925.88;5081818;28;20016;-77
2023/03/05 02:55:56;;;;;;;;;;;;;;;3.44;100.00;97923.66;5075394;28;19932;-78
2023/03/05 02:58:22;;;;;;;;;;;;;;;3.23;100.00;97933.59;5069246;28;20011;-77
2023/03/05 03:00:48;;;;;;;;;;;;;;;3.32;100.00;97915.66;5069206;28;19976;-77
2023/03/05 03:03:15;;;;;;;;;;;;;;;3.28;100.00;97914.44;5063327;28;20353;-76
2023/03/05 03:05:41;;;;;;;;;;;;;;;3.39;100.00;97926.97;5066807;28;19959;-76
2023/03/05 03:08:09;;;;;;;;;;;;;;;3.51;100.00;97919.13;5065652;28;19935;-76
2023/03/05 03:10:35;;;;;;;;;;;;;;;3.49;100.00;97918.56;5085869;28;19927;-77
2023/03/05 03:13:03;;;;;;;;;;;;;;;3.49;100.00;97921.19;5075671;28;19960;-77
2023/03/05 03:15:30;;;;;;;;;;;;;;;3.34;100.00;97918.09;5083915;28;19931;-76
2023/03/05 03:17:56;;;;;;;;;;;;;;;3.32;100.00;97915.66;5081889;28;20324;-77
2023/03/05 03:20:22;;;;;;;;;;;;;;;3.33;100.00;97921.75;5065945;28;20039;-77
2023/03/05 03:22:49;;;;;;;;;;;;;;;3.28;100.00;97918.94;5067127;28;19929;-78
2023/03/05 03:25:16;;;;;;;;;;;;;;;3.30;100.00;97916.91;5060451;28;19947;-76
2023/03/05 03:27:42;;;;;;;;;;;;;;;3.39;100.00;97929.59;5081691;28;19970;-75
2023/03/05 03:30:11;;;;;;;;;;;;;;;3.13;100.00;97911.34;5069716;28;19939;-76
2023/03/05 03:32:37;;;;;;;;;;;;;;;3.14;100.00;97908.50;5057856;28;19934;-77
2023/03/05 03:35:04;;;;;;;;;;;;;;;3.05;100.00;97909.78;5054311;28;20410;-75
2023/03/05 03:37:30;;;;;;;;;;;;;;;3.18;100.00;97904.41;5057035;28;19924;-76
2023/03/05 03:39:56;;;;;;;;;;;;;;;3.10;100.00;97899.38;5062399;28;19947;-77
2023/03/05 03:42:23;;;;;;;;;;;;;;;3.30;100.00;97903.69;5057872;28;19928;-77
2023/03/05 03:44:49;;;;;;;;;;;;;;;3.36;100.00;97900.19;5076003;28;19924;-77
2023/03/05 03:47:17;;;;;;;;;;;;;;;3.41;100.00;97892.41;5068202;28;19954;-76
2023/03/05 03:49:44;;;;;;;;;;;;;;;3.34;100.00;97886.41;5076418;28;19924;-75
2023/03/05 03:52:10;;;;;;;;;;;;;;;3.42;100.00;97889.56;5076778;28;19942;-76
2023/03/05 03:54:37;;;;;;;;;;;;;;;3.31;100.00;97886.84;5077688;28;20030;-76
2023/03/05 03:57:03;;;;;;;;;;;;;;;3.34;100.00;97886.41;5065766;28;20513;-76
2023/03/05 03:59:29;;;;;;;;;;;;;;;3.40;100.00;97881.06;5083628;28;19950;-76
2023/03/05 04:01:56;;;;;;;;;;;;;;;3.31;100.00;97886.84;5081881;28;19939;-76
2023/03/05 04:04:25;;;;;;;;;;;;;;;3.42;100.00;97886.13;5070684;28;20068;-77
2023/03/05 04:06:51;;;;;;;;;;;;;;;3.41;100.00;97881.84;5059072;28;20009;-77
2023/03/05 04:09:17;;;;;;;;;;;;;;;3.44;100.00;97876.13;5078276;28;20023;-76
2023/03/05 04:11:44;;;;;;;;;;;;;;;3.38;100.00;97871.72;5082893;28;19946;-77
2023/03/05 04:14:10;;;;;;;;;;;;;;;3.39;100.00;97874.16;5072717;28;19931;-78
2023/03/05 04:16:36;;;;;;;;;;;;;;;3.46;100.00;97874.13;5074896;28;20405;-76
2023/03/05 04:19:03;;;;;;;;;;;;;;;3.42;100.00;97865.00;5075727;28;20779;-78
2023/03/05 04:21:30;;;;;;;;;;;;;;;3.41;100.00;97872.13;5082067;28;19932;-77
2023/03/05 04:23:57;;;;;;;;;;;;;;;3.37;100.00;97870.13;5073045;28;19928;-76
2023/03/05 04:26:23;;;;;;;;;;;;;;;3.41;100.00;97866.84;5074001;28;20028;-75
2023/03/05 04:28:49;;;;;;;;;;;;;;;3.20;100.00;97867.25;5062947;28;19936;-76
2023/03/05 04:31:16;;;;;;;;;;;;;;;3.22;100.00;97871.28;5060244;28;19982;-77
2023/03/05 04:33:43;;;;;;;;;;;;;;;3.17;100.00;97868.50;5050700;28;19925;-77
2023/03/05 04:36:09;;;;;;;;;;;;;;;3.14;100.00;97866.28;5075743;28;20019;-76
2023/03/05 04:38:37;;;;;;;;;;;;;;;3.32;100.00;97865.50;5071773;28;20026;-76
2023/03/05 04:41:03;;;;;;;;;;;;;;;3.40;100.00;97867.06;5073254;28;20019;-76
2023/03/05 04:43:30;;;;;;;;;;;;;;;3.33;100.00;97866.31;5069995;28;19931;-77
2023/03/05 04:45:56;;;;;;;;;;;;;;;3.37;100.00;97870.13;5079223;28;19979;-76
2023/03/05 04:48:22;;;;;;;;;;;;;;;3.16;100.00;97869.50;5080383;28;19928;-76
2023/03/05 04:50:49;;;;;;;;;;;;;;;3.36;100.00;97873.78;5067593;28;19924;-75
2023/03/05 04:53:15;;;;;;;;;;;;;;;3.34;100.00;97870.56;5079478;28;20006;-76
2023/03/05 04:55:43;;;;;;;;;;;;;;;3.16;100.00;97858.94;5083750;28;19931;-75
2023/03/05 04:58:09;;;;;;;;;;;;;;;3.18;100.00;97864.03;5057052;28;19929;-78
2023/03/05 05:00:36;;;;;;;;;;;;;;;3.10;100.00;97854.53;5079215;28;19970;-76
2023/03/05 05:03:02;;;;;;;;;;;;;;;3.08;100.00;97851.31;5050990;28;19924;-75
2023/03/05 05:05:29;;;;;;;;;;;;;;;3.07;100.00;97841.78;5073653;28;19928;-75
2023/03/05 05:07:55;;;;;;;;;;;;;;;3.22;100.00;97852.00;5059224;28;19928;-77
2023/03/05 05:10:22;;;;;;;;;;;;;;;3.33;100.00;97848.66;5081455;28;20573;-78
2023/03/05 05:12:50;;;;;;;;;;;;;;;3.35;100.00;97851.06;5081935;28;20133;-76
2023/03/05 05:15:16;;;;;;;;;;;;;;;3.38;100.00;97847.97;5073316;28;20500;-77
2023/03/05 05:17:42;;;;;;;;;;;;;;;3.30;100.00;97846.44;5077733;28;20461;-76
2023/03/05 05:20:10;;;;;;;;;;;;;;;3.26;100.00;97843.44;5081770;28;20580;-75
2023/03/05 05:22:37;;;;;;;;;;;;;;;3.29;100.00;97847.47;5075883;28;19935;-77
2023/03/05 05:25:03;;;;;;;;;;;;;;;3.31;100.00;97852.53;5061551;28;20014;-77
2023/03/05 05:27:30;;;;;;;;;;;;;;;3.31;100.00;97855.19;5061419;28;19924;-76
2023/03/05 05:29:58;;;;;;;;;;;;;;;3.30;100.00;97850.91;5061499;28;20282;-76
2023/03/05 05:32:24;;;;;;;;;;;;;;;3.25;100.00;97852.38;5057046;28;20482;-77
2023/03/05 05:34:53;;;;;;;;;;;;;;;3.33;100.00;97853.13;5072011;28;20038;-76
2023/03/05 05:37:19;;;;;;;;;;;;;;;3.37;100.00;97852.47;5076938;28;19938;-76
2023/03/05 05:39:49;;;;;;;;;;;;;;;3.20;100.00;97851.41;5067601;28;19933;-76
2023/03/05 05:42:15;;;;;;;;;;;;;;;3.28;100.00;97845.06;5080771;28;19928;-76
2023/03/05 05:44:41;;;;;;;;;;;;;;;3.28;100.00;97850.34;5064188;28;19924;-76
2023/03/05 05:47:09;;;;;;;;;;;;;;;3.26;100.00;97858.44;5066418;28;19924;-76
2023/03/05 05:49:35;;;;;;;;;;;;;;;3.26;100.00;97847.91;5084704;28;19934;-77
2023/03/05 05:52:02;;;;;;;;;;;;;;;3.26;100.00;97858.44;5085553;28;19924;-78
2023/03/05 05:54:28;;;;;;;;;;;;;;;3.33;100.00;97845.19;5066530;28;19925;-76
2023/03/05 05:56:54;;;;;;;;;;;;;;;3.28;100.00;97857.22;5054874;28;20023;-76
2023/03/05 05:59:21;;;;;;;;;;;;;;;3.31;100.00;97861.25;5080394;28;19931;-76
2023/03/05 06:01:47;;;;;;;;;;;;;;;3.25;100.00;97855.00;5075519;28;19928;-76
2023/03/05 06:04:15;;;;;;;;;;;;;;;3.25;100.00;97862.91;5064562;28;19961;-76
2023/03/05 06:06:41;;;;;;;;;;;;;;;3.30;100.00;97864.09;5080106;28;20295;-76
2023/03/05 06:09:07;;;;;;;;;;;;;;;3.25;100.00;97857.66;5073949;28;20027;-76
2023/03/05 06:11:34;;;;;;;;;;;;;;;3.33;100.00;97859.22;5063195;28;19930;-76
2023/03/05 06:14:01;;;;;;;;;;;;;;;3.38;100.00;97855.91;5080857;28;19924;-75
2023/03/05 06:16:28;;;;;;;;;;;;;;;3.33;100.00;97858.41;5069662;28;19963;-78
2023/03/05 06:18:54;;;;;;;;;;;;;;;3.41;100.00;97868.66;5061314;28;19932;-77
2023/03/05 06:21:22;;;;;;;;;;;;;;;3.33;100.00;97863.66;5063218;28;20603;-76
2023/03/05 06:23:49;;;;;;;;;;;;;;;3.33;100.00;97856.56;5081016;28;20542;-76
2023/03/05 06:26:17;;;;;;;;;;;;;;;3.28;100.00;97855.63;5077742;28;20030;-76
2023/03/05 06:28:43;;;;;;;;;;;;;;;3.23;100.00;97864.97;5080765;28;19931;-76
2023/03/05 06:31:10;;;;;;;;;;;;;;;3.39;100.00;97862.81;5077904;28;19925;-75
2023/03/05 06:33:37;;;;;;;;;;;;;;;3.34;100.00;97866.09;5083153;28;19928;-77
2023/03/05 06:36:04;;;;;;;;;;;;;;;3.29;100.00;97863.28;5054756;28;19928;-77
2023/03/05 06:38:32;;;;;;;;;;;;;;;3.32;100.00;97862.06;5087144;28;19963;-76
2023/03/05 06:41:00;;;;;;;;;;;;;;;3.38;100.00;97861.19;5064235;28;19925;-76
2023/03/05 06:43:26;;;;;;;;;;;;;;;3.39;100.00;97858.34;5068379;28;19946;-75
2023/03/05 06:46:01;;;;;;;;;;;;;;;3.31;100.00;97860.47;5069600;28;21378;-75
2023/03/05 06:48:27;;;;;;;;;;;;;;;3.17;100.00;97854.47;5074828;28;19934;-75
2023/03/05 06:50:53;;;;;;;;;;;;;;;3.28;100.00;97857.22;5084180;28;20651;-75
2023/03/05 06:53:20;;;;;;;;;;;;;;;3.37;100.00;97855.13;5086736;28;20011;-75
2023/03/05 06:55:47;;;;;;;;;;;;;;;3.44;100.00;97855.84;5077958;28;19928;-76
2023/03/05 06:58:14;;;;;;;;;;;;;;;3.39;100.00;97858.34;5087514;28;20001;-75
2023/03/05 07:00:40;;;;;;;;;;;;;;;3.40;100.00;97848.59;5085115;28;20019;-75
2023/03/05 07:03:06;;;;;;;;;;;;;;;3.42;100.00;97852.63;5070841;28;19965;-74
2023/03/05 07:05:33;;;;;;;;;;;;;;;3.39;100.00;97844.31;5062167;28;19924;-76
2023/03/05 07:07:59;;;;;;;;;;;;;;;3.25;100.00;97841.81;5068961;28;20349;-76
2023/03/05 07:10:25;;;;;;;;;;;;;;;3.14;100.00;97847.81;5069818;28;20765;-76
2023/03/05 07:12:53;;;;;;;;;;;;;;;3.32;100.00;97841.75;5041820;28;20478;-76
2023/03/05 07:15:19;;;;;;;;;;;;;;;3.35;100.00;97843.13;5075903;28;20405;-76
2023/03/05 07:17:46;;;;;;;;;;;;;;;3.34;100.00;97846.81;5076140;28;19924;-75
2023/03/05 07:20:12;;;;;;;;;;;;;;;3.38;100.00;97845.34;5083395;28;19924;-76
2023/03/05 07:22:39;;;;;;;;;;;;;;;3.38;100.00;97845.34;5070095;28;19928;-77
2023/03/05 07:25:06;;;;;;;;;;;;;;;3.36;100.00;97847.41;5066312;28;19928;-76
2023/03/05 07:27:34;;;;;;;;;;;;;;;3.33;100.00;97847.84;5077296;28;20842;-76
2023/03/05 07:30:02;;;;;;;;;;;;;;;3.35;100.00;97845.78;5077253;28;19928;-77
2023/03/05 07:32:28;;;;;;;;;;;;;;;3.36;100.00;97847.41;5086553;28;19934;-76
2023/03/05 07:34:54;;;;;;;;;;;;;;;3.43;100.00;97845.50;5075094;28;19924;-75
2023/03/05 07:37:21;;;;;;;;;;;;;;;3.47;100.00;97844.03;5084858;28;19947;-78
2023/03/05 07:39:47;;;;;;;;;;;;;;;3.53;100.00;97841.31;5085416;28;20427;-76
2023/03/05 07:42:13;;;;;;;;;;;;;;;3.51;100.00;97843.38;5065760;28;19932;-76
2023/03/05 07:44:40;;;;;;;;;;;;;;;3.45;100.00;97840.81;5087257;28;19924;-76
2023/03/05 07:47:07;;;;;;;;;;;;;;;3.42;100.00;97835.97;5086183;28;19924;-76
2023/03/05 07:49:34;;;;;;;;;;;;;;;3.47;100.00;97836.91;5078897;28;19924;-76
2023/03/05 07:52:00;;;;;;;;;;;;;;;3.48;100.00;97843.81;5077578;28;19931;-76
2023/03/05 07:54:26;;;;;;;;;;;;;;;3.44;100.00;97834.72;5071126;28;19925;-76
2023/03/05 07:56:54;;;;;;;;;;;;;;;3.32;100.00;97840.94;5074722;28;19924;-76
2023/03/05 07:59:20;;;;;;;;;;;;;;;3.39;100.00;97831.13;5054232;28;19924;-75
2023/03/05 08:01:46;;;;;;;;;;;;;;;3.53;100.00;97843.19;5083395;28;19964;-77
2023/03/05 08:04:14;;;;;;;;;;;;;;;3.50;100.00;97839.13;5081881;28;19962;-76
2023/03/05 08:06:41;;;;;;;;;;;;;;;3.54;100.00;97826.28;5070894;28;19924;-76
2023/03/05 08:09:07;;;;;;;;;;;;;;;3.55;100.00;97828.72;5057632;28;20407;-76
2023/03/05 08:11:33;;;;;;;;;;;;;;;3.64;100.00;97832.69;5079327;28;19928;-76
2023/03/05 08:14:00;;;;;;;;;;;;;;;3.33;100.00;97832.00;5081197;28;19924;-75
2023/03/05 08:16:27;;;;;;;;;;;;;;;3.20;100.00;97828.47;5061205;28;20118;-76
2023/03/05 08:18:54;;;;;;;;;;;;;;;3.45;100.00;97831.06;5074462;28;20007;-76
2023/03/05 08:21:25;;;;;;;;;;;;;;;3.53;100.00;97830.75;5065120;28;19928;-77
2023/03/05 08:23:52;;;;;;;;;;;;;;;3.45;100.00;97825.78;5082762;28;19970;-76
2023/03/05 08:26:20;;;;;;;;;;;;;;;3.41;100.00;97826.41;5078113;28;19962;-75
2023/03/05 08:28:46;;;;;;;;;;;;;;;3.49;100.00;97818.22;5079518;28;20038;-75
2023/03/05 08:31:14;;;;;;;;;;;;;;;3.56;100.00;97818.97;5057994;28;20024;-78
2023/03/05 08:33:40;;;;;;;;;;;;;;;3.22;100.00;97815.03;5080701;28;19930;-75
2023/03/05 08:36:07;;;;;;;;;;;;;;;3.37;100.00;97823.44;5086460;28;19926;-76
2023/03/05 08:38:35;;;;;;;;;;;;;;;3.51;100.00;97824.09;5086639;28;20513;-76
2023/03/05 08:41:01;;;;;;;;;;;;;;;3.42;100.00;97820.94;5085937;28;19924;-75
2023/03/05 08:43:29;;;;;;;;;;;;;;;3.35;100.00;97827.31;5073737;28;19985;-76
2023/03/05 08:45:56;;;;;;;;;;;;;;;3.42;100.00;97828.03;5077972;28;19924;-76
2023/03/05 08:48:22;;;;;;;;;;;;;;;3.60;100.00;97820.94;5065988;28;20023;-77
2023/03/05 08:50:48;;;;;;;;;;;;;;;3.64;100.00;97824.75;5082067;28;20568;-75
2023/03/05 08:53:15;;;;;;;;;;;;;;;3.36;100.00;97816.53;5081754;28;19928;-75
2023/03/05 08:55:42;;;;;;;;;;;;;;;3.15;100.00;97816.97;5067191;28;19928;-77
2023/03/05 08:58:09;;;;;;;;;;;;;;;3.22;100.00;97815.84;5070919;28;19932;-72
2023/03/05 09:00:35;;;;;;;;;;;;;;;3.26;100.00;97814.41;5059438;28;19954;-72
2023/03/05 09:03:01;;;;;;;;;;;;;;;3.26;100.00;97805.66;5044645;28;20322;-77
2023/03/05 09:05:28;;;;;;;;;;;;;;;3.30;100.00;97808.69;5054708;28;20556;-73
2023/03/05 09:07:54;;;;;;;;;;;;;;;3.38;100.00;97808.38;5060943;28;19928;-74
2023/03/05 09:10:20;;;;;;;;;;;;;;;3.40;100.00;97811.63;5063605;28;20031;-73
2023/03/05 09:12:49;;;;;;;;;;;;;;;3.56;100.00;97811.84;5053649;28;19932;-74
2023/03/05 09:15:15;;;;;;;;;;;;;;;3.69;100.00;97814.31;5054631;28;19931;-74
2023/03/05 09:17:41;;;;;;;;;;;;;;;3.35;100.00;97803.53;5061138;28;20025;-75
2023/03/05 09:20:11;;;;;;;;;;;;;;;3.41;100.00;97803.47;5072007;28;19958;-75
2023/03/05 09:22:37;;;;;;;;;;;;;;;3.65;100.00;97801.81;5078752;28;19934;-75
2023/03/05 09:25:04;;;;;;;;;;;;;;;3.36;100.00;97795.44;5065297;28;20279;-74
2023/03/05 09:27:32;;;;;;;;;;;;;;;3.63;100.00;97791.44;5075804;28;20011;-74
2023/03/05 09:30:00;;;;;;;;;;;;;;;3.58;100.00;97804.53;5072361;28;20023;-74
2023/03/05 09:32:26;;;;;;;;;;;;;;;3.61;100.00;97788.22;5077821;28;20326;-74
2023/03/05 09:34:53;;;;;;;;;;;;;;;3.45;100.00;97782.72;5064735;28;20008;-75
2023/03/05 09:37:19;;;;;;;;;;;;;;;3.47;100.00;97792.03;5070020;28;20023;-74
2023/03/05 09:39:45;;;;;;;;;;;;;;;3.42;100.00;97783.97;5064547;28;20023;-75
2023/03/05 09:42:23;;;;;;;;;;;;;;;3.60;100.00;97780.53;5063513;28;19935;-74
2023/03/05 09:44:54;;;;;;;;;;;;;;;3.62;100.00;97784.53;5057536;28;19940;-74
2023/03/05 09:47:31;;;;;;;;;;;;;;;3.43;100.00;97782.97;5061522;28;19929;-75
2023/03/05 09:49:59;;;;;;;;;;;;;;;3.68;100.00;97782.88;5056585;28;19989;-74
2023/03/05 09:52:32;;;;;;;;;;;;;;;3.83;100.00;97780.66;5059684;28;19990;-75
2023/03/05 09:54:59;;;;;;;;;;;;;;;3.62;100.00;97779.25;5073614;28;19967;-76
2023/03/05 09:57:29;;;;;;;;;;;;;;;3.56;100.00;97779.38;5059383;28;19987;-75
2023/03/05 09:59:57;;;;;;;;;;;;;;;3.46;100.00;97779.88;5061036;28;19924;-76
2023/03/05 10:02:27;;;;;;;;;;;;;;;3.77;100.00;97776.25;5062017;28;19924;-75
2023/03/05 10:04:57;;;;;;;;;;;;;;;3.57;100.00;97770.41;5078673;28;19923;-75
2023/03/05 10:07:25;;;;;;;;;;;;;;;3.46;100.00;97768.50;5066180;28;19929;-75
2023/03/05 10:09:55;;;;;;;;;;;;;;;3.41;100.00;97765.72;5069447;28;19924;-75
2023/03/05 10:12:26;;;;;;;;;;;;;;;3.49;100.00;97763.59;5068350;28;20396;-75
2023/03/05 10:14:53;;;;;;;;;;;;;;;3.65;100.00;97762.97;5073944;28;19935;-76
2023/03/05 10:17:37;;;;;;;;;;;;;;;3.76;100.00;97754.31;5072634;28;20471;-74
2023/03/05 10:20:14;;;;;;;;;;;;;;;3.54;100.00;97752.38;5076085;28;19931;-75
2023/03/05 10:22:49;;;;;;;;;;;;;;;3.67;100.00;97755.66;5063539;28;19938;-74
2023/03/05 10:25:18;;;;;;;;;;;;;;;3.73;100.00;97749.47;5081610;28;19938;-78
2023/03/05 10:27:48;;;;;;;;;;;;;;;3.75;100.00;97751.88;5081192;28;19951;-73
2023/03/05 10:30:23;;;;;;;;;;;;;;;3.70;100.00;97749.94;5051501;28;20394;-74
2023/03/05 10:32:54;;;;;;;;;;;;;;;3.82;100.00;97739.41;5070912;28;20326;-75
2023/03/05 10:35:33;;;;;;;;;;;;;;;3.62;100.00;97738.88;5068343;28;20462;-74
2023/03/05 10:38:12;;;;;;;;;;;;;;;3.81;100.00;97746.53;5078869;28;19932;-81
2023/03/05 10:40:40;;;;;;;;;;;;;;;3.80;100.00;97733.56;5075677;28;19928;-78
2023/03/05 10:43:12;;;;;;;;;;;;;;;3.89;100.00;97747.25;5071044;28;21749;-80
2023/03/05 10:45:41;;;;;;;;;;;;;;;3.91;100.00;97735.41;5075765;28;19936;-81
2023/03/05 10:48:12;;;;;;;;;;;;;;;3.75;100.00;97736.03;5070098;28;20010;-80
2023/03/05 10:50:42;;;;;;;;;;;;;;;3.81;100.00;97729.84;5064289;28;19925;-82
2023/03/05 10:53:15;;;;;;;;;;;;;;;3.56;100.00;97731.84;5058574;28;19928;-81
2023/03/05 10:55:41;;;;;;;;;;;;;;;3.65;100.00;97731.28;5068105;28;19951;-81
2023/03/05 10:58:11;;;;;;;;;;;;;;;3.77;100.00;97723.44;5060145;28;20210;-80
2023/03/05 11:00:38;;;;;;;;;;;;;;;3.75;100.00;97718.34;5071940;28;20468;-81
2023/03/05 11:03:05;;;;;;;;;;;;;;;3.89;100.00;97718.19;5078524;28;19928;-80
2023/03/05 11:05:37;;;;;;;;;;;;;;;3.90;100.00;97711.88;5075648;28;19924;-80
2023/03/05 11:08:17;;;;;;;;;;;;;;;3.88;100.00;97719.22;5069444;28;19924;-80
2023/03/05 11:10:43;;;;;;;;;;;;;;;3.93;100.00;97703.50;5076473;28;20022;-79
2023/03/05 11:13:23;;;;;;;;;;;;;;;3.92;100.00;97705.34;5063341;28;19932;-80
2023/03/05 11:15:58;;;;;;;;;;;;;;;3.88;100.00;97703.34;5071298;28;19932;-80
2023/03/05 11:18:25;;;;;;;;;;;;;;;3.85;100.00;97694.06;5073842;28;19952;-82
2023/03/05 11:20:51;;;;;;;;;;;;;;;3.80;100.00;97699.22;5056514;28;20016;-81
2023/03/05 11:23:20;;;;;;;;;;;;;;;3.83;100.00;97690.84;5082379;28;20593;-81
2023/03/05 11:25:54;;;;;;;;;;;;;;;3.82;100.00;97691.88;5063210;28;19928;-79
2023/03/05 11:28:22;;;;;;;;;;;;;;;3.85;100.00;97682.69;5071146;28;19927;-81
2023/03/05 11:30:55;;;;;;;;;;;;;;;3.87;100.00;97688.56;5080716;28;19930;-81
2023/03/05 11:33:22;;;;;;;;;;;;;;;3.88;100.00;97683.03;5049780;28;20361;-83
2023/03/05 11:35:49;;;;;;;;;;;;;;;3.92;100.00;97668.34;5065181;28;19924;-80
2023/03/05 11:38:17;;;;;;;;;;;;;;;3.90;100.00;97669.63;5074887;28;19950;-84
2023/03/05 11:40:45;;;;;;;;;;;;;;;3.91;100.00;97669.38;5061372;28;20628;-82
2023/03/05 11:43:15;;;;;;;;;;;;;;;3.92;100.00;97673.63;5057952;28;19938;-80
2023/03/05 11:45:42;;;;;;;;;;;;;;;3.97;100.00;97659.72;5065488;28;19924;-80
2023/03/05 11:48:11;;;;;;;;;;;;;;;3.84;100.00;97654.69;5065078;28;20018;-79
2023/03/05 11:50:41;;;;;;;;;;;;;;;3.97;100.00;97665.81;5074589;28;19928;-81
2023/03/05 11:53:11;;;;;;;;;;;;;;;3.95;100.00;97652.06;5074136;28;19964;-79
2023/03/05 11:55:40;;;;;;;;;;;;;;;4.05;100.00;97640.94;5068968;28;20470;-81
2023/03/05 11:58:22;;;;;;;;;;;;;;;3.91;100.00;97645.59;5056956;28;20358;-80
2023/03/05 12:00:48;;;;;;;;;;;;;;;3.94;100.00;97641.69;5064248;28;19924;-81
2023/03/05 12:03:16;;;;;;;;;;;;;;;3.98;100.00;97642.84;5077707;28;19963;-78
2023/03/05 12:05:45;;;;;;;;;;;;;;;3.95;100.00;97636.19;5072678;28;19939;-78
2023/03/05 12:08:14;;;;;;;;;;;;;;;3.93;100.00;97630.31;5078626;28;19974;-78
2023/03/05 12:10:40;;;;;;;;;;;;;;;3.91;100.00;97627.09;5056509;28;19999;-78
2023/03/05 12:13:12;;;;;;;;;;;;;;;3.96;100.00;97629.09;5062027;28;20015;-79
2023/03/05 12:15:45;;;;;;;;;;;;;;;3.96;100.00;97621.94;5078405;28;19924;-79
2023/03/05 12:18:15;;;;;;;;;;;;;;;3.90;100.00;97622.84;5076453;28;19928;-78
2023/03/05 12:20:45;;;;;;;;;;;;;;;3.89;100.00;97621.25;5065695;28;19924;-79
2023/03/05 12:23:13;;;;;;;;;;;;;;;3.98;100.00;97611.16;5064350;28;20016;-80
2023/03/05 12:25:46;;;;;;;;;;;;;;;4.00;100.00;97615.19;5033771;28;19936;-81
2023/03/05 12:28:13;;;;;;;;;;;;;;;3.99;100.00;97610.13;5052320;28;19925;-82
2023/03/05 12:30:56;;;;;;;;;;;;;;;3.92;100.00;97604.94;5051382;28;20411;-84
2023/03/05 12:33:30;;;;;;;;;;;;;;;3.92;100.00;97598.84;5064430;28;19940;-83
2023/03/05 12:36:11;;;;;;;;;;;;;;;3.98;100.00;97603.22;5054098;28;19928;-81
2023/03/05 12:38:37;;;;;;;;;;;;;;;3.84;100.00;97610.56;5073640;28;20018;-86
2023/03/05 12:41:22;;;;;;;;;;;;;;;3.93;100.00;97598.63;5073869;28;20411;-82
2023/03/05 12:44:08;;;;;;;;;;;;;;;3.92;100.00;97590.94;5071194;28;20044;-82
2023/03/05 12:46:37;;;;;;;;;;;;;;;4.01;100.00;97600.94;5072816;28;20639;-82
2023/03/05 12:49:18;;;;;;;;;;;;;;;4.01;100.00;97593.00;5054398;28;20018;-81
2023/03/05 12:51:46;;;;;;;;;;;;;;;3.96;100.00;97594.75;5076041;28;19928;-82